Time;durP1;ratioP1;P1;durP2;ratioP2;P2;SDS_P1;SDS_P2;PMS_P1;PMS_P2;Temp;Humidity;BMP_temperature;BMP_pressure;BME280_temperature;BME280_humidity;BME280_pressure;Samples;Min_cycle;Max_cycle;Signal;HPM_P1;HPM_P2
2024/04/01 00:02:42;;;;;;;25.88;5.10;;;;;;;;;;5077436;28;20644;-80
2024/04/01 00:05:32;;;;;;;36.80;5.60;;;;;;;;;;5071819;28;20035;-79
2024/04/01 00:08:23;;;;;;;24.58;3.40;;;;;;;;;;5077325;28;20048;-83
2024/04/01 00:11:15;;;;;;;33.13;5.00;;;;;;;;;;5070037;28;20033;-82
2024/04/01 00:14:07;;;;;;;38.55;5.18;;;;;;;;;;5066016;28;20035;-82
2024/04/01 00:17:00;;;;;;;27.08;4.53;;;;;;;;;;5047927;28;20040;-84
2024/04/01 00:19:49;;;;;;;31.90;6.00;;;;;;;;;;5058374;28;20036;-83
2024/04/01 00:22:41;;;;;;;26.20;5.07;;;;;;;;;;5069861;28;20041;-83
2024/04/01 00:25:33;;;;;;;27.95;5.57;;;;;;;;;;5077394;28;20052;-82
2024/04/01 00:28:25;;;;;;;27.08;3.85;;;;;;;;;;5072373;28;20539;-83
2024/04/01 00:31:17;;;;;;;39.10;5.18;;;;;;;;;;5076750;28;20032;-82
2024/04/01 00:34:09;;;;;;;25.48;5.38;;;;;;;;;;5080535;28;20497;-81
2024/04/01 00:37:01;;;;;;;23.52;3.47;;;;;;;;;;5062851;28;20032;-81
2024/04/01 00:39:53;;;;;;;30.77;3.83;;;;;;;;;;5076685;28;20675;-81
2024/04/01 00:42:45;;;;;;;26.83;3.15;;;;;;;;;;5075054;28;20046;-84
2024/04/01 00:45:38;;;;;;;23.05;3.88;;;;;;;;;;5075052;28;20043;-81
2024/04/01 00:48:33;;;;;;;22.38;3.63;;;;;;;;;;5074302;28;20044;-83
2024/04/01 00:51:23;;;;;;;29.92;4.28;;;;;;;;;;5060465;28;20041;-82
2024/04/01 00:54:12;;;;;;;29.50;5.20;;;;;;;;;;5067509;28;20033;-81
2024/04/01 00:57:00;;;;;;;27.75;4.90;;;;;;;;;;5051381;28;20052;-80
2024/04/01 00:59:51;;;;;;;30.73;5.32;;;;;;;;;;5056580;28;20044;-81
2024/04/01 01:02:48;;;;;;;32.97;5.60;;;;;;;;;;5061998;28;20052;-80
2024/04/01 01:05:40;;;;;;;32.15;4.88;;;;;;;;;;5068725;28;20051;-80
2024/04/01 01:08:32;;;;;;;30.13;4.65;;;;;;;;;;5072049;28;20037;-82
2024/04/01 01:11:24;;;;;;;22.75;5.00;;;;;;;;;;5080723;28;20040;-81
2024/04/01 01:14:16;;;;;;;28.27;4.68;;;;;;;;;;5050034;28;20033;-79
2024/04/01 01:17:08;;;;;;;33.85;7.60;;;;;;;;;;5076745;28;20039;-80
2024/04/01 01:19:58;;;;;;;29.77;6.03;;;;;;;;;;5072207;28;20040;-82
2024/04/01 01:22:50;;;;;;;33.58;5.15;;;;;;;;;;5065331;28;20035;-81
2024/04/01 01:25:42;;;;;;;31.95;4.82;;;;;;;;;;5069638;28;20040;-81
2024/04/01 01:28:32;;;;;;;36.83;4.97;;;;;;;;;;5062308;28;20620;-80
2024/04/01 01:31:23;;;;;;;21.52;3.97;;;;;;;;;;5057233;28;20037;-82
2024/04/01 01:34:15;;;;;;;31.58;4.10;;;;;;;;;;5074512;28;20043;-80
2024/04/01 01:37:07;;;;;;;34.83;7.38;;;;;;;;;;5041592;28;20046;-81
2024/04/01 01:39:56;;;;;;;26.35;4.10;;;;;;;;;;5067216;28;20043;-80
2024/04/01 01:42:48;;;;;;;32.72;3.90;;;;;;;;;;5076416;28;20045;-83
2024/04/01 01:45:40;;;;;;;34.42;5.68;;;;;;;;;;5055807;28;20039;-82
2024/04/01 01:48:29;;;;;;;39.90;5.68;;;;;;;;;;5069940;28;20033;-82
2024/04/01 01:51:19;;;;;;;24.65;4.47;;;;;;;;;;5071330;28;20519;-80
2024/04/01 01:54:10;;;;;;;35.22;4.32;;;;;;;;;;5063253;28;20044;-80
2024/04/01 01:57:03;;;;;;;28.08;5.53;;;;;;;;;;5063852;28;20028;-80
2024/04/01 01:59:55;;;;;;;30.70;4.72;;;;;;;;;;5080940;28;20032;-79
2024/04/01 02:02:44;;;;;;;33.42;5.25;;;;;;;;;;5055355;28;20041;-79
2024/04/01 02:05:36;;;;;;;33.58;5.20;;;;;;;;;;5068655;28;20065;-79
2024/04/01 02:08:28;;;;;;;42.08;6.88;;;;;;;;;;5057290;28;20036;-81
2024/04/01 02:11:20;;;;;;;32.25;7.38;;;;;;;;;;5069026;28;20037;-81
2024/04/01 02:14:12;;;;;;;29.33;4.82;;;;;;;;;;5063808;28;20055;-80
2024/04/01 02:17:04;;;;;;;37.33;5.20;;;;;;;;;;5057667;28;20044;-80
2024/04/01 02:19:56;;;;;;;39.83;4.75;;;;;;;;;;5052372;28;20036;-80
2024/04/01 02:22:48;;;;;;;35.15;6.32;;;;;;;;;;5069843;28;20040;-79
2024/04/01 02:25:37;;;;;;;25.38;4.03;;;;;;;;;;5071111;28;20033;-80
2024/04/01 02:28:22;;;;;;;32.72;5.53;;;;;;;;;;5059388;28;20056;-81
2024/04/01 02:31:13;;;;;;;34.75;6.45;;;;;;;;;;5062978;28;20048;-80
2024/04/01 02:34:05;;;;;;;51.45;6.03;;;;;;;;;;5037297;28;20029;-82
2024/04/01 02:36:55;;;;;;;37.40;5.40;;;;;;;;;;5050283;28;20049;-81
2024/04/01 02:39:44;;;;;;;32.60;5.70;;;;;;;;;;5072185;28;20048;-81
2024/04/01 02:42:36;;;;;;;32.10;4.72;;;;;;;;;;5078845;28;20032;-83
2024/04/01 02:45:25;;;;;;;38.92;7.60;;;;;;;;;;5073347;28;20056;-82
2024/04/01 02:48:18;;;;;;;39.65;5.78;;;;;;;;;;5060574;28;20040;-83
2024/04/01 02:51:10;;;;;;;33.83;5.72;;;;;;;;;;5061826;28;20045;-83
2024/04/01 02:54:02;;;;;;;28.67;4.68;;;;;;;;;;5061222;28;20517;-82
2024/04/01 02:56:55;;;;;;;39.85;5.90;;;;;;;;;;5072026;28;20040;-83
2024/04/01 02:59:47;;;;;;;32.70;5.80;;;;;;;;;;5073245;28;20033;-83
2024/04/01 03:02:40;;;;;;;36.75;5.30;;;;;;;;;;5081644;28;20056;-81
2024/04/01 03:05:29;;;;;;;38.45;5.97;;;;;;;;;;5082008;28;20032;-84
2024/04/01 03:08:21;;;;;;;33.40;5.25;;;;;;;;;;5076547;28;20043;-84
2024/04/01 03:11:13;;;;;;;30.77;4.82;;;;;;;;;;5069075;28;20040;-81
2024/04/01 03:14:05;;;;;;;39.80;6.55;;;;;;;;;;5057855;28;20037;-82
2024/04/01 03:16:55;;;;;;;42.75;6.78;;;;;;;;;;5057667;28;20033;-82
2024/04/01 03:19:46;;;;;;;30.30;6.68;;;;;;;;;;5071445;28;20036;-80
2024/04/01 03:22:38;;;;;;;55.78;9.05;;;;;;;;;;5068589;28;20039;-83
2024/04/01 03:25:30;;;;;;;38.53;7.53;;;;;;;;;;5080676;28;20040;-82
2024/04/01 03:28:25;;;;;;;41.08;7.25;;;;;;;;;;5072456;28;20044;-81
2024/04/01 03:31:17;;;;;;;21.05;3.42;;;;;;;;;;5050903;28;20036;-79
2024/04/01 03:34:07;;;;;;;28.75;4.55;;;;;;;;;;5062300;28;20033;-82
2024/04/01 03:36:59;;;;;;;37.08;5.15;;;;;;;;;;5056636;28;20442;-83
2024/04/01 03:39:51;;;;;;;35.05;5.65;;;;;;;;;;5069806;28;20036;-81
2024/04/01 03:42:43;;;;;;;35.15;6.13;;;;;;;;;;5068055;28;20037;-83
2024/04/01 03:45:38;;;;;;;30.73;5.25;;;;;;;;;;5063884;28;20041;-79
2024/04/01 03:48:29;;;;;;;29.25;6.60;;;;;;;;;;5065359;28;20519;-82
2024/04/01 03:51:18;;;;;;;36.33;5.85;;;;;;;;;;5065195;28;20044;-80
2024/04/01 03:54:08;;;;;;;38.92;4.78;;;;;;;;;;5047205;28;20040;-81
2024/04/01 03:56:56;;;;;;;38.58;6.35;;;;;;;;;;5052540;28;20545;-79
2024/04/01 03:59:46;;;;;;;35.00;6.30;;;;;;;;;;5070481;28;21410;-82
2024/04/01 04:02:38;;;;;;;35.60;5.82;;;;;;;;;;5067210;28;20052;-79
2024/04/01 04:05:30;;;;;;;35.70;6.30;;;;;;;;;;5081813;28;20045;-82
2024/04/01 04:08:21;;;;;;;34.72;8.52;;;;;;;;;;5063998;28;20414;-83
2024/04/01 04:11:11;;;;;;;46.30;6.47;;;;;;;;;;5068939;28;20539;-82
2024/04/01 04:14:05;;;;;;;40.83;5.40;;;;;;;;;;5061961;28;20041;-81
2024/04/01 04:16:55;;;;;;;36.95;6.57;;;;;;;;;;5054269;28;20036;-81
2024/04/01 04:19:47;;;;;;;51.47;6.38;;;;;;;;;;5081636;28;20040;-84
2024/04/01 04:22:39;;;;;;;39.75;5.78;;;;;;;;;;5061835;28;20036;-81
2024/04/01 04:25:30;;;;;;;40.60;5.93;;;;;;;;;;5066021;28;20406;-81
2024/04/01 04:28:17;;;;;;;30.00;5.03;;;;;;;;;;5073613;28;20033;-80
2024/04/01 04:31:09;;;;;;;39.45;6.15;;;;;;;;;;5061064;28;20044;-81
2024/04/01 04:33:59;;;;;;;35.05;6.38;;;;;;;;;;5068265;28;20025;-81
2024/04/01 04:36:51;;;;;;;44.15;7.13;;;;;;;;;;5065396;28;20040;-82
2024/04/01 04:39:42;;;;;;;49.88;6.63;;;;;;;;;;5072216;28;20509;-81
2024/04/01 04:42:32;;;;;;;34.20;6.03;;;;;;;;;;5075599;28;20047;-81
2024/04/01 04:45:24;;;;;;;42.22;6.60;;;;;;;;;;5078725;28;20040;-80
2024/04/01 04:48:16;;;;;;;40.58;7.03;;;;;;;;;;5052924;28;20051;-80
2024/04/01 04:51:08;;;;;;;44.25;6.05;;;;;;;;;;5053079;28;20402;-80
2024/04/01 04:53:59;;;;;;;43.42;7.07;;;;;;;;;;5058322;28;20052;-80
2024/04/01 04:56:51;;;;;;;43.42;7.15;;;;;;;;;;5067022;28;20036;-81
2024/04/01 04:59:43;;;;;;;41.22;7.07;;;;;;;;;;5079734;28;20051;-80
2024/04/01 05:02:35;;;;;;;36.38;5.57;;;;;;;;;;5062430;28;20052;-80
2024/04/01 05:05:24;;;;;;;33.25;8.38;;;;;;;;;;5067427;28;20425;-81
2024/04/01 05:08:16;;;;;;;49.97;7.47;;;;;;;;;;5065014;28;20040;-81
2024/04/01 05:11:08;;;;;;;45.38;7.75;;;;;;;;;;5067765;28;20049;-80
2024/04/01 05:13:59;;;;;;;50.92;8.70;;;;;;;;;;5075920;28;20041;-82
2024/04/01 05:16:49;;;;;;;48.53;8.00;;;;;;;;;;5059583;28;20032;-84
2024/04/01 05:19:41;;;;;;;59.53;9.38;;;;;;;;;;5080972;28;20524;-84
2024/04/01 05:22:30;;;;;;;44.80;7.03;;;;;;;;;;5071160;28;20036;-84
2024/04/01 05:25:17;;;;;;;44.13;7.68;;;;;;;;;;5077770;28;20529;-84
2024/04/01 05:28:09;;;;;;;29.33;5.55;;;;;;;;;;5072590;28;20137;-82
2024/04/01 05:31:01;;;;;;;48.80;7.55;;;;;;;;;;5075451;28;20048;-83
2024/04/01 05:33:53;;;;;;;35.60;6.78;;;;;;;;;;5072003;28;20029;-84
2024/04/01 05:36:42;;;;;;;45.50;7.13;;;;;;;;;;5061017;28;20430;-84
2024/04/01 05:39:34;;;;;;;41.28;7.35;;;;;;;;;;5073658;28;20069;-83
2024/04/01 05:42:26;;;;;;;38.33;7.88;;;;;;;;;;5065131;28;20390;-84
2024/04/01 05:45:18;;;;;;;32.78;5.88;;;;;;;;;;5074100;28;20056;-86
2024/04/01 05:48:10;;;;;;;51.90;7.20;;;;;;;;;;5070093;28;20044;-81
2024/04/01 05:51:01;;;;;;;43.08;7.47;;;;;;;;;;5073255;28;20043;-85
2024/04/01 05:53:54;;;;;;;55.95;7.20;;;;;;;;;;5073961;28;20041;-83
2024/04/01 05:56:43;;;;;;;57.45;8.70;;;;;;;;;;5059929;28;20029;-85
2024/04/01 05:59:33;;;;;;;39.67;6.60;;;;;;;;;;5064562;28;20391;-84
2024/04/01 06:02:22;;;;;;;44.63;7.95;;;;;;;;;;5060180;28;20041;-84
2024/04/01 06:05:11;;;;;;;41.03;6.72;;;;;;;;;;5061310;28;20040;-83
2024/04/01 06:08:03;;;;;;;43.15;5.63;;;;;;;;;;5050028;28;20029;-85
2024/04/01 06:10:53;;;;;;;50.22;6.75;;;;;;;;;;5056215;28;20039;-85
2024/04/01 06:13:42;;;;;;;40.63;6.43;;;;;;;;;;5061620;28;20482;-84
2024/04/01 06:16:31;;;;;;;49.05;7.70;;;;;;;;;;5052259;28;20036;-83
2024/04/01 06:19:18;;;;;;;40.15;7.32;;;;;;;;;;5057576;28;20104;-83
2024/04/01 06:22:10;;;;;;;41.60;7.28;;;;;;;;;;5066639;28;20041;-82
2024/04/01 06:25:02;;;;;;;45.58;7.15;;;;;;;;;;5061473;28;20036;-82
2024/04/01 06:27:51;;;;;;;47.97;6.97;;;;;;;;;;5049826;28;21525;-82
2024/04/01 06:30:43;;;;;;;56.55;7.85;;;;;;;;;;5048639;28;20513;-86
2024/04/01 06:33:33;;;;;;;40.33;6.32;;;;;;;;;;5055805;28;20367;-84
2024/04/01 06:36:25;;;;;;;36.97;4.78;;;;;;;;;;5059180;28;20033;-82
2024/04/01 06:39:14;;;;;;;59.72;7.38;;;;;;;;;;5064395;28;20378;-84
2024/04/01 06:42:06;;;;;;;48.70;8.93;;;;;;;;;;5067371;28;20040;-85
2024/04/01 06:44:55;;;;;;;51.85;7.63;;;;;;;;;;5067952;28;20039;-83
2024/04/01 06:47:47;;;;;;;44.15;7.57;;;;;;;;;;5070109;28;20412;-84
2024/04/01 06:50:39;;;;;;;31.65;5.70;;;;;;;;;;5073833;28;20052;-84
2024/04/01 06:53:31;;;;;;;50.70;5.93;;;;;;;;;;5067368;28;20521;-83
2024/04/01 06:56:20;;;;;;;42.35;8.25;;;;;;;;;;5062799;28;20044;-83
2024/04/01 06:59:12;;;;;;;44.55;7.07;;;;;;;;;;5036293;28;20037;-83
2024/04/01 07:02:04;;;;;;;33.42;6.57;;;;;;;;;;5052040;28;20049;-81
2024/04/01 07:04:54;;;;;;;44.78;7.35;;;;;;;;;;5069890;28;20041;-83
2024/04/01 07:07:41;;;;;;;51.03;8.07;;;;;;;;;;5071020;28;20406;-83
2024/04/01 07:10:30;;;;;;;40.80;6.43;;;;;;;;;;5058344;28;20037;-82
2024/04/01 07:13:17;;;;;;;41.05;6.10;;;;;;;;;;5061109;28;20041;-86
2024/04/01 07:16:04;;;;;;;41.65;7.03;;;;;;;;;;5058068;28;20048;-86
2024/04/01 07:18:53;;;;;;;25.48;5.18;;;;;;;;;;5059667;28;20045;-84
2024/04/01 07:21:40;;;;;;;43.88;6.72;;;;;;;;;;5062004;28;20025;-83
2024/04/01 07:24:32;;;;;;;28.20;6.55;;;;;;;;;;5058600;28;20045;-84
2024/04/01 07:27:22;;;;;;;33.55;6.03;;;;;;;;;;5057501;28;20048;-84
2024/04/01 07:30:14;;;;;;;29.67;5.47;;;;;;;;;;5055732;28;20040;-84
2024/04/01 07:33:04;;;;;;;42.38;5.75;;;;;;;;;;5061960;28;20052;-82
2024/04/01 07:35:55;;;;;;;55.28;9.27;;;;;;;;;;5061275;28;20046;-84
2024/04/01 07:38:47;;;;;;;39.28;6.53;;;;;;;;;;5061087;28;20031;-82
2024/04/01 07:41:36;;;;;;;40.60;6.28;;;;;;;;;;5052630;28;20042;-84
2024/04/01 07:44:26;;;;;;;37.00;6.70;;;;;;;;;;5059665;28;20526;-83
2024/04/01 07:47:15;;;;;;;50.38;8.18;;;;;;;;;;5049481;28;20033;-85
2024/04/01 07:50:05;;;;;;;40.33;6.28;;;;;;;;;;5061557;28;20041;-85
2024/04/01 07:52:54;;;;;;;58.28;8.15;;;;;;;;;;5071731;28;20040;-84
2024/04/01 07:55:46;;;;;;;38.95;6.60;;;;;;;;;;5066110;28;20037;-85
2024/04/01 07:58:38;;;;;;;40.60;7.18;;;;;;;;;;5063158;28;20044;-83
2024/04/01 08:01:30;;;;;;;38.30;6.88;;;;;;;;;;5061856;28;20048;-84
2024/04/01 08:04:22;;;;;;;28.48;5.50;;;;;;;;;;5075656;28;20045;-86
2024/04/01 08:07:14;;;;;;;38.33;6.88;;;;;;;;;;5062758;28;20033;-85
2024/04/01 08:10:06;;;;;;;36.50;7.15;;;;;;;;;;5071287;28;20057;-84
2024/04/01 08:12:56;;;;;;;41.00;6.20;;;;;;;;;;5071253;28;20406;-84
2024/04/01 08:15:48;;;;;;;37.53;6.07;;;;;;;;;;5067856;28;20644;-83
2024/04/01 08:18:35;;;;;;;35.60;8.15;;;;;;;;;;5060547;28;20406;-84
2024/04/01 08:21:27;;;;;;;29.48;7.90;;;;;;;;;;5066289;28;20048;-86
2024/04/01 08:24:18;;;;;;;44.60;7.22;;;;;;;;;;5054461;28;20037;-82
2024/04/01 08:27:08;;;;;;;29.45;6.80;;;;;;;;;;5061901;28;20049;-83
2024/04/01 08:30:00;;;;;;;38.47;6.72;;;;;;;;;;5054934;28;20041;-82
2024/04/01 08:32:52;;;;;;;41.40;6.22;;;;;;;;;;5062498;28;20037;-85
2024/04/01 08:35:44;;;;;;;43.15;8.02;;;;;;;;;;5063386;28;20033;-84
2024/04/01 08:38:36;;;;;;;72.82;14.60;;;;;;;;;;5069888;28;20037;-84
2024/04/01 08:41:29;;;;;;;39.55;7.93;;;;;;;;;;5062169;28;20043;-84
2024/04/01 08:44:21;;;;;;;34.55;6.47;;;;;;;;;;5042758;28;20041;-85
2024/04/01 08:47:13;;;;;;;39.97;7.65;;;;;;;;;;5044927;28;20036;-83
2024/04/01 08:50:10;;;;;;;54.95;8.93;;;;;;;;;;5058886;28;20402;-85
2024/04/01 08:53:01;;;;;;;45.13;6.65;;;;;;;;;;5070648;28;20036;-85
2024/04/01 08:55:53;;;;;;;49.67;10.10;;;;;;;;;;5060850;28;20052;-84
2024/04/01 08:58:45;;;;;;;48.92;7.00;;;;;;;;;;5070010;28;20135;-85
2024/04/01 09:01:32;;;;;;;42.40;9.65;;;;;;;;;;5063821;28;20425;-84
2024/04/01 09:04:23;;;;;;;50.25;6.50;;;;;;;;;;5060905;28;20032;-84
2024/04/01 09:07:15;;;;;;;47.35;9.50;;;;;;;;;;5063069;28;20073;-85
2024/04/01 09:10:04;;;;;;;71.30;10.35;;;;;;;;;;5069536;28;20041;-84
2024/04/01 09:12:56;;;;;;;39.38;7.75;;;;;;;;;;5069807;28;20044;-85
2024/04/01 09:15:48;;;;;;;39.58;7.15;;;;;;;;;;5068702;28;20033;-83
2024/04/01 09:18:40;;;;;;;40.63;5.70;;;;;;;;;;5058019;28;20410;-84
2024/04/01 09:21:32;;;;;;;37.10;7.53;;;;;;;;;;5066791;28;20033;-83
2024/04/01 09:24:24;;;;;;;41.10;6.38;;;;;;;;;;5066724;28;20040;-82
2024/04/01 09:27:13;;;;;;;26.55;5.63;;;;;;;;;;5061705;28;20055;-83
2024/04/01 09:30:03;;;;;;;29.33;7.38;;;;;;;;;;5067931;28;20037;-82
2024/04/01 09:32:52;;;;;;;33.40;6.40;;;;;;;;;;5063309;28;20025;-83
2024/04/01 09:35:41;;;;;;;28.60;4.68;;;;;;;;;;5071061;28;20042;-82
2024/04/01 09:38:40;;;;;;;34.60;6.28;;;;;;;;;;5060354;28;20046;-82
2024/04/01 09:41:32;;;;;;;26.27;4.75;;;;;;;;;;5068106;28;20051;-81
2024/04/01 09:44:25;;;;;;;30.70;6.20;;;;;;;;;;5061856;28;20043;-82
2024/04/01 09:47:15;;;;;;;43.95;7.85;;;;;;;;;;5063728;28;20044;-82
2024/04/01 09:50:06;;;;;;;36.13;5.20;;;;;;;;;;5057557;28;20040;-82
2024/04/01 09:52:58;;;;;;;27.00;4.00;;;;;;;;;;5068991;28;20036;-83
2024/04/01 09:55:54;;;;;;;39.22;5.60;;;;;;;;;;5061106;28;20041;-82
2024/04/01 09:58:46;;;;;;;;;;;;;;;;;;5070585;28;20033;-82
2024/04/01 10:01:51;;;;;;;32.85;6.00;;;;;;;;;;5054003;28;19920;-82
2024/04/01 10:04:54;;;;;;;31.30;5.13;;;;;;;;;;5061943;28;20056;-81
2024/04/01 10:07:47;;;;;;;35.50;5.68;;;;;;;;;;5064133;28;20608;-83
2024/04/01 10:10:54;;;;;;;26.00;5.10;;;;;;;;;;5070804;28;20417;-83
2024/04/01 10:13:51;;;;;;;34.65;6.65;;;;;;;;;;5077439;28;20032;-82
2024/04/01 10:17:01;;;;;;;37.60;7.18;;;;;;;;;;5066048;28;20498;-81
2024/04/01 10:20:09;;;;;;;36.40;5.72;;;;;;;;;;5070431;28;20041;-81
2024/04/01 10:23:05;;;;;;;29.38;5.57;;;;;;;;;;5063004;28;20035;-80
2024/04/01 10:26:08;;;;;;;25.33;6.13;;;;;;;;;;5067078;28;20052;-83
2024/04/01 10:29:19;;;;;;;31.23;4.15;;;;;;;;;;5066984;28;20033;-83
2024/04/01 10:32:15;;;;;;;28.23;4.95;;;;;;;;;;5067647;28;20409;-84
2024/04/01 10:35:23;;;;;;;27.45;3.97;;;;;;;;;;5052788;28;20519;-83
2024/04/01 10:38:19;;;;;;;23.50;4.70;;;;;;;;;;5049095;28;20038;-83
2024/04/01 10:41:31;;;;;;;20.42;3.95;;;;;;;;;;5068445;28;20048;-81
2024/04/01 10:44:28;;;;;;;18.98;5.22;;;;;;;;;;5051798;28;20052;-84
2024/04/01 10:47:36;;;;;;;17.92;4.40;;;;;;;;;;5055354;28;20044;-82
2024/04/01 10:50:35;;;;;;;20.00;3.78;;;;;;;;;;5069336;28;20044;-84
2024/04/01 10:53:31;;;;;;;11.65;3.30;;;;;;;;;;5078482;28;20032;-83
2024/04/01 10:56:39;;;;;;;16.25;3.72;;;;;;;;;;5070679;28;20029;-83
2024/04/01 10:59:31;;;;;;;19.23;3.40;;;;;;;;;;5083338;28;20036;-83
2024/04/01 11:02:39;;;;;;;14.88;3.90;;;;;;;;;;5051233;28;20049;-83
2024/04/01 11:05:47;;;;;;;14.27;3.75;;;;;;;;;;5058547;28;20037;-81
2024/04/01 11:08:47;;;;;;;23.77;3.85;;;;;;;;;;5076576;28;20041;-81
2024/04/01 11:11:56;;;;;;;20.10;4.00;;;;;;;;;;5074551;28;20036;-82
2024/04/01 11:14:45;;;;;;;19.60;4.47;;;;;;;;;;5067126;28;20037;-82
2024/04/01 11:17:33;;;;;;;19.00;4.78;;;;;;;;;;5065964;28;20025;-82
2024/04/01 11:20:55;;;;;;;18.35;3.08;;;;;;;;;;5058695;28;20040;-82
2024/04/01 11:23:52;;;;;;;19.83;3.97;;;;;;;;;;5060193;28;20040;-81
2024/04/01 11:27:00;;;;;;;26.73;5.88;;;;;;;;;;5059003;28;20414;-82
2024/04/01 11:29:56;;;;;;;17.42;4.72;;;;;;;;;;5065035;28;20037;-81
2024/04/01 11:32:45;;;;;;;;;;;;;;;;;;5058410;28;20037;-82
2024/04/01 11:35:53;;;;;;;22.55;4.60;;;;;;;;;;5084985;28;19915;-82
2024/04/01 11:38:48;;;;;;;22.45;3.90;;;;;;;;;;5072576;28;20033;-81
2024/04/01 11:41:38;;;;;;;25.20;4.43;;;;;;;;;;5069616;28;20032;-82
2024/04/01 11:44:27;;;;;;;21.95;5.40;;;;;;;;;;5057448;28;20037;-80
2024/04/01 11:47:20;;;;;;;19.27;4.10;;;;;;;;;;5057371;28;20037;-79
2024/04/01 11:50:24;;;;;;;14.02;4.00;;;;;;;;;;5050865;28;20033;-82
2024/04/01 11:53:16;;;;;;;13.88;3.25;;;;;;;;;;5082373;28;20033;-81
2024/04/01 11:56:08;;;;;;;26.42;4.63;;;;;;;;;;5080482;28;20043;-81
2024/04/01 11:58:58;;;;;;;18.00;4.90;;;;;;;;;;5060631;28;20040;-81
2024/04/01 12:01:50;;;;;;;27.15;3.53;;;;;;;;;;5072175;28;20043;-80
2024/04/01 12:04:37;;;;;;;17.77;4.45;;;;;;;;;;5061331;28;20047;-82
2024/04/01 12:07:28;;;;;;;19.02;3.38;;;;;;;;;;5060837;28;20524;-82
2024/04/01 12:10:22;;;;;;;29.17;3.67;;;;;;;;;;5040822;28;20041;-79
2024/04/01 12:13:12;;;;;;;19.33;3.55;;;;;;;;;;5041239;28;20537;-82
2024/04/01 12:16:01;;;;;;;27.77;4.05;;;;;;;;;;5049900;28;20041;-83
2024/04/01 12:18:59;;;;;;;17.45;3.28;;;;;;;;;;5040457;28;20037;-84
2024/04/01 12:21:50;;;;;;;31.35;5.82;;;;;;;;;;5071397;28;20052;-84
2024/04/01 12:24:43;;;;;;;21.45;5.05;;;;;;;;;;5073368;28;20375;-84
2024/04/01 12:27:33;;;;;;;18.25;4.55;;;;;;;;;;5068770;28;20052;-82
2024/04/01 12:30:20;;;;;;;17.00;4.25;;;;;;;;;;5056087;28;20041;-82
2024/04/01 12:33:12;;;;;;;21.17;5.05;;;;;;;;;;5058908;28;20036;-80
2024/04/01 12:36:04;;;;;;;11.32;3.25;;;;;;;;;;5076809;28;20025;-82
2024/04/01 12:38:59;;;;;;;14.43;2.95;;;;;;;;;;5068977;28;20029;-81
2024/04/01 12:41:50;;;;;;;12.77;2.78;;;;;;;;;;5072447;28;20036;-82
2024/04/01 12:44:44;;;;;;;13.85;4.45;;;;;;;;;;5064806;28;20037;-82
2024/04/01 12:47:36;;;;;;;21.75;3.97;;;;;;;;;;5059126;28;20037;-83
2024/04/01 12:50:27;;;;;;;18.52;3.47;;;;;;;;;;5057463;28;20045;-82
2024/04/01 12:53:45;;;;;;;22.05;4.43;;;;;;;;;;5064099;28;20042;-82
2024/04/01 12:56:47;;;;;;;27.65;4.30;;;;;;;;;;5070517;28;20037;-83
2024/04/01 12:59:48;;;;;;;13.25;4.10;;;;;;;;;;5064925;28;20036;-82
2024/04/01 13:02:52;;;;;;;22.92;3.30;;;;;;;;;;5073569;28;20528;-81
2024/04/01 13:06:01;;;;;;;25.25;4.15;;;;;;;;;;5059058;28;20045;-81
2024/04/01 13:09:02;;;;;;;21.88;4.60;;;;;;;;;;5065763;28;20037;-81
2024/04/01 13:12:09;;;;;;;14.65;3.35;;;;;;;;;;5063267;28;20044;-82
2024/04/01 13:15:09;;;;;;;22.15;4.93;;;;;;;;;;5066283;28;20051;-83
2024/04/01 13:18:22;;;;;;;20.92;5.25;;;;;;;;;;5057666;28;20041;-82
2024/04/01 13:21:25;;;;;;;16.75;3.90;;;;;;;;;;5037491;28;20058;-82
2024/04/01 13:24:24;;;;;;;28.98;4.47;;;;;;;;;;5057115;28;20056;-84
2024/04/01 13:27:21;;;;;;;20.60;5.70;;;;;;;;;;5056475;28;20036;-81
2024/04/01 13:30:25;;;;;;;19.27;3.92;;;;;;;;;;5052491;28;20063;-82
2024/04/01 13:33:32;;;;;;;15.15;3.20;;;;;;;;;;5060827;28;20044;-81
2024/04/01 13:36:40;;;;;;;25.15;4.47;;;;;;;;;;5063390;28;20033;-83
2024/04/01 13:39:49;;;;;;;19.00;4.18;;;;;;;;;;5059447;28;20047;-82
2024/04/01 13:42:55;;;;;;;24.60;4.95;;;;;;;;;;5072986;28;20037;-81
2024/04/01 13:45:52;;;;;;;21.52;3.50;;;;;;;;;;5067946;28;20048;-82
2024/04/01 13:48:51;;;;;;;26.80;3.97;;;;;;;;;;5062863;28;20517;-82
2024/04/01 13:51:59;;;;;;;22.27;3.45;;;;;;;;;;5070629;28;20048;-82
2024/04/01 13:54:50;;;;;;;23.05;4.03;;;;;;;;;;5077944;28;20101;-82
2024/04/01 13:57:59;;;;;;;26.60;6.63;;;;;;;;;;5072019;28;20040;-83
2024/04/01 14:00:54;;;;;;;23.80;4.32;;;;;;;;;;5064761;28;20043;-81
2024/04/01 14:03:47;;;;;;;18.15;4.30;;;;;;;;;;5075730;28;20512;-81
2024/04/01 14:06:40;;;;;;;18.27;5.65;;;;;;;;;;5054019;28;20029;-80
2024/04/01 14:09:41;;;;;;;25.17;5.28;;;;;;;;;;5058351;28;20536;-82
2024/04/01 14:13:05;;;;;;;22.60;4.43;;;;;;;;;;5061840;28;20059;-81
2024/04/01 14:16:16;;;;;;;23.35;4.75;;;;;;;;;;5036529;28;20043;-83
2024/04/01 14:19:13;;;;;;;25.13;5.28;;;;;;;;;;5050238;28;20695;-82
2024/04/01 14:22:01;;;;;;;19.23;4.78;;;;;;;;;;5057074;28;20029;-81
2024/04/01 14:25:00;;;;;;;21.23;3.72;;;;;;;;;;5074986;28;20040;-81
2024/04/01 14:27:51;;;;;;;27.73;4.47;;;;;;;;;;5060446;28;20053;-80
2024/04/01 14:30:41;;;;;;;25.88;4.22;;;;;;;;;;5075459;28;20041;-82
2024/04/01 14:33:30;;;;;;;27.83;5.63;;;;;;;;;;5068261;28;20041;-80
2024/04/01 14:36:22;;;;;;;28.95;5.43;;;;;;;;;;5055245;28;20068;-82
2024/04/01 14:39:12;;;;;;;28.60;4.50;;;;;;;;;;5050080;28;20029;-82
2024/04/01 14:41:59;;;;;;;27.65;3.78;;;;;;;;;;5066441;28;20029;-81
2024/04/01 14:44:51;;;;;;;28.25;5.65;;;;;;;;;;5076435;28;20405;-82
2024/04/01 14:47:44;;;;;;;17.70;5.45;;;;;;;;;;5063976;28;20056;-82
2024/04/01 14:50:36;;;;;;;27.77;4.85;;;;;;;;;;5058169;28;20036;-82
2024/04/01 14:53:26;;;;;;;21.00;3.67;;;;;;;;;;5063704;28;20043;-82
2024/04/01 14:56:18;;;;;;;18.73;3.47;;;;;;;;;;5063191;28;20040;-81
2024/04/01 14:59:10;;;;;;;20.75;5.07;;;;;;;;;;5065196;28;20039;-81
2024/04/01 15:02:00;;;;;;;21.52;3.17;;;;;;;;;;5056606;28;20052;-83
2024/04/01 15:04:49;;;;;;;19.00;4.88;;;;;;;;;;5062722;28;20046;-82
2024/04/01 15:07:42;;;;;;;21.58;3.67;;;;;;;;;;5065435;28;20044;-82
2024/04/01 15:10:29;;;;;;;;;;;;;;;;;;5061558;28;20121;-83
2024/04/01 15:13:19;;;;;;;25.75;4.47;;;;;;;;;;5060568;28;19924;-79
2024/04/01 15:16:12;;;;;;;22.52;4.75;;;;;;;;;;5057032;28;20024;-81
2024/04/01 15:19:03;;;;;;;21.30;4.22;;;;;;;;;;5064690;28;20033;-82
2024/04/01 15:21:54;;;;;;;31.90;6.03;;;;;;;;;;5067336;28;20036;-81
2024/04/01 15:24:46;;;;;;;25.70;4.55;;;;;;;;;;5077600;28;20033;-82
2024/04/01 15:27:38;;;;;;;20.67;3.70;;;;;;;;;;5061087;28;20537;-80
2024/04/01 15:30:30;;;;;;;28.67;5.13;;;;;;;;;;5064744;28;20051;-80
2024/04/01 15:33:22;;;;;;;21.90;3.85;;;;;;;;;;5064946;28;20064;-81
2024/04/01 15:36:14;;;;;;;22.90;4.35;;;;;;;;;;5070986;28;20033;-81
2024/04/01 15:39:06;;;;;;;20.55;3.83;;;;;;;;;;5076178;28;20037;-83
2024/04/01 15:41:58;;;;;;;33.53;6.30;;;;;;;;;;5074692;28;20071;-82
2024/04/01 15:44:48;;;;;;;23.67;5.75;;;;;;;;;;5070839;28;20041;-82
2024/04/01 15:47:38;;;;;;;22.95;4.82;;;;;;;;;;5064688;28;20032;-81
2024/04/01 15:50:30;;;;;;;18.58;3.50;;;;;;;;;;5066176;28;20051;-82
2024/04/01 15:53:20;;;;;;;16.05;4.68;;;;;;;;;;5076237;28;20037;-82
2024/04/01 15:56:09;;;;;;;22.35;4.25;;;;;;;;;;5080376;28;20544;-81
2024/04/01 15:59:01;;;;;;;26.40;5.50;;;;;;;;;;5067701;28;20041;-81
2024/04/01 16:01:53;;;;;;;25.10;4.53;;;;;;;;;;5066820;28;20048;-81
2024/04/01 16:04:44;;;;;;;30.95;4.60;;;;;;;;;;5063750;28;20060;-81
2024/04/01 16:07:36;;;;;;;21.33;4.30;;;;;;;;;;5076177;28;20038;-83
2024/04/01 16:10:29;;;;;;;30.20;4.97;;;;;;;;;;5048361;28;20049;-81
2024/04/01 16:13:18;;;;;;;29.13;4.82;;;;;;;;;;5066714;28;20036;-81
2024/04/01 16:16:11;;;;;;;24.25;5.30;;;;;;;;;;5070156;28;20528;-82
2024/04/01 16:19:03;;;;;;;31.85;4.90;;;;;;;;;;5052079;28;20053;-81
2024/04/01 16:21:56;;;;;;;17.15;3.95;;;;;;;;;;5051804;28;20518;-81
2024/04/01 16:24:48;;;;;;;25.55;5.10;;;;;;;;;;5051400;28;20040;-82
2024/04/01 16:27:42;;;;;;;23.52;4.72;;;;;;;;;;5053173;28;20406;-81
2024/04/01 16:30:34;;;;;;;27.15;4.82;;;;;;;;;;5058624;28;20047;-78
2024/04/01 16:33:27;;;;;;;18.55;4.53;;;;;;;;;;5068645;28;20524;-81
2024/04/01 16:36:19;;;;;;;13.40;3.63;;;;;;;;;;5062709;28;20520;-81
2024/04/01 16:39:09;;;;;;;22.92;5.03;;;;;;;;;;5059996;28;20040;-80
2024/04/01 16:42:02;;;;;;;21.83;4.05;;;;;;;;;;5058379;28;20038;-82
2024/04/01 16:44:54;;;;;;;18.15;4.95;;;;;;;;;;5051129;28;20414;-83
2024/04/01 16:47:47;;;;;;;32.20;5.78;;;;;;;;;;5046595;28;20033;-82
2024/04/01 16:50:39;;;;;;;25.73;5.07;;;;;;;;;;5051758;28;20383;-82
2024/04/01 16:53:27;;;;;;;20.40;4.70;;;;;;;;;;5041167;28;20179;-81
2024/04/01 16:56:18;;;;;;;17.58;3.42;;;;;;;;;;5046456;28;20525;-83
2024/04/01 16:59:06;;;;;;;21.02;3.63;;;;;;;;;;5051706;28;20052;-82
2024/04/01 17:01:58;;;;;;;23.00;4.55;;;;;;;;;;5048939;28;20041;-81
2024/04/01 17:04:55;;;;;;;14.10;3.10;;;;;;;;;;5054480;28;20033;-81